ESSA Informações do Aeroporto

Informações da Pista
Pista 01L Comprimento 10830 ft Largura 148 ft
Elevação 98 ft Limite 0 ft Heading 10
Pista 19R Comprimento 10830 ft Largura 148 ft
Elevação 118 ft Limite 0 ft Heading 190
Pista 01R Comprimento 8201 ft Largura 148 ft
Elevação 137 ft Limite 0 ft Heading 10
Pista 19L Comprimento 8201 ft Largura 148 ft
Elevação 98 ft Limite 0 ft Heading 190
Pista 08 Comprimento 8202 ft Largura 148 ft
Elevação 108 ft Limite 0 ft Heading 76
Pista 26 Comprimento 8202 ft Largura 148 ft
Elevação 124 ft Limite 0 ft Heading 256
Frequências do Aeroporto
Tipo APP Nome STOCKHOLM Frequência 123.75 MHZ
Tipo ATIS Nome ATIS Frequência 119 MHZ
Tipo CLD Nome CLNC DEL Frequência 121.825 MHZ
Tipo GND Nome GND Frequência 121.7 MHZ
Tipo PMSV Nome MET OFFICE Frequência 122.6 MHZ
Tipo TWR Nome TWR Frequência 118.5 MHZ
Navaids do Aeroporto
Tipo VOR-DME Nome Arlanda Frequência 116000 KHZ
Tipo NDB Nome Arlanda Frequência 352 KHZ
Tipo NDB Nome Arlanda Frequência 360 KHZ
Tipo NDB Nome Arlanda Frequência 404 KHZ
Tipo NDB Nome Arlanda Frequência 370 KHZ
Informações meteorológicas do aeroporto e NOTAM
ADDS - METARS form results

(0242 UTC 22 September 2020)
Data provider http://aviationweather.gov/metar/data/
 
METAR text: ESSA 220220Z 24012KT CAVOK 11/08 Q1005 NOSIG
Conditions at: ESSA (STOCKHOLM/ARLAND, SE) observed 0220 UTC 22 September 2020
Temperature: 11.0°C (52°F)
Dewpoint: 8.0°C (46°F) [RH = 82%]
Pressure (altimeter): 29.68 inches Hg (1005.0 mb)
Winds: from the WSW (240 degrees) at 14 MPH (12 knots; 6.2 m/s)
Visibility: 6 or more miles (10+ km)
Ceiling: ceiling and visibility are OK
Clouds: unknown
Weather: no significant weather observed at this time

METAR text: ESSA 220150Z 24013KT CAVOK 12/09 Q1006 NOSIG
Conditions at: ESSA (STOCKHOLM/ARLAND, SE) observed 0150 UTC 22 September 2020
Temperature: 12.0°C (54°F)
Dewpoint: 9.0°C (48°F) [RH = 82%]
Pressure (altimeter): 29.70 inches Hg (1006.0 mb)
Winds: from the WSW (240 degrees) at 15 MPH (13 knots; 6.7 m/s)
Visibility: 6 or more miles (10+ km)
Ceiling: ceiling and visibility are OK
Clouds: unknown
Weather: no significant weather observed at this time

Forecast for: ESSA (STOCKHOLM/ARLAND, SE)
Text: TAF ESSA 212330Z 2200/2224 24012KT CAVOK
Forecast period: 0000 UTC 22 September 2020 to 0000 UTC 23 September 2020
Forecast type: FROM: standard forecast or significant change
Winds: from the WSW (240 degrees) at 14 MPH (12 knots; 6.2 m/s)
Visibility: 6 or more miles (10+ km)
Ceiling: unknown
Clouds: missing
Weather: NSW  (no significant weather)